sensor_id;sensor_type;location;lat;lon;timestamp;P1;durP1;ratioP1;P2;durP2;ratioP2
19016;SDS011;9641;51.494;6.670;2023-09-07T00:00:34;10.88;;;5.65;;
19016;SDS011;9641;51.494;6.670;2023-09-07T00:03:00;8.10;;;5.47;;
19016;SDS011;9641;51.494;6.670;2023-09-07T00:05:27;12.88;;;6.15;;
19016;SDS011;9641;51.494;6.670;2023-09-07T00:07:54;9.27;;;5.55;;
19016;SDS011;9641;51.494;6.670;2023-09-07T00:10:22;8.98;;;5.82;;
19016;SDS011;9641;51.494;6.670;2023-09-07T00:12:51;10.27;;;5.88;;
19016;SDS011;9641;51.494;6.670;2023-09-07T00:15:19;7.57;;;6.13;;
19016;SDS011;9641;51.494;6.670;2023-09-07T00:17:46;11.07;;;6.40;;
19016;SDS011;9641;51.494;6.670;2023-09-07T00:20:14;11.25;;;5.68;;
19016;SDS011;9641;51.494;6.670;2023-09-07T00:22:41;10.38;;;5.72;;
19016;SDS011;9641;51.494;6.670;2023-09-07T00:25:08;15.13;;;5.82;;
19016;SDS011;9641;51.494;6.670;2023-09-07T00:27:35;11.75;;;6.13;;
19016;SDS011;9641;51.494;6.670;2023-09-07T00:30:02;12.25;;;6.38;;
19016;SDS011;9641;51.494;6.670;2023-09-07T00:32:32;10.50;;;6.00;;
19016;SDS011;9641;51.494;6.670;2023-09-07T00:34:59;9.40;;;5.65;;
19016;SDS011;9641;51.494;6.670;2023-09-07T00:37:26;9.02;;;5.88;;
19016;SDS011;9641;51.494;6.670;2023-09-07T00:39:52;12.60;;;5.90;;
19016;SDS011;9641;51.494;6.670;2023-09-07T00:42:19;7.40;;;6.20;;
19016;SDS011;9641;51.494;6.670;2023-09-07T00:44:46;11.55;;;6.75;;
19016;SDS011;9641;51.494;6.670;2023-09-07T00:47:13;9.82;;;5.68;;
19016;SDS011;9641;51.494;6.670;2023-09-07T00:49:42;9.50;;;6.22;;
19016;SDS011;9641;51.494;6.670;2023-09-07T00:52:09;9.77;;;6.55;;
19016;SDS011;9641;51.494;6.670;2023-09-07T00:54:36;11.50;;;5.93;;
19016;SDS011;9641;51.494;6.670;2023-09-07T00:57:06;9.00;;;5.93;;
19016;SDS011;9641;51.494;6.670;2023-09-07T00:59:33;10.15;;;6.28;;
19016;SDS011;9641;51.494;6.670;2023-09-07T01:02:00;8.38;;;5.75;;
19016;SDS011;9641;51.494;6.670;2023-09-07T01:04:28;8.80;;;5.55;;
19016;SDS011;9641;51.494;6.670;2023-09-07T01:06:58;10.30;;;6.45;;
19016;SDS011;9641;51.494;6.670;2023-09-07T01:09:31;10.77;;;6.50;;
19016;SDS011;9641;51.494;6.670;2023-09-07T01:12:02;10.80;;;6.88;;
19016;SDS011;9641;51.494;6.670;2023-09-07T01:14:29;12.55;;;6.22;;
19016;SDS011;9641;51.494;6.670;2023-09-07T01:16:57;11.43;;;6.00;;
19016;SDS011;9641;51.494;6.670;2023-09-07T01:19:24;9.18;;;6.28;;
19016;SDS011;9641;51.494;6.670;2023-09-07T01:21:52;8.77;;;5.85;;
19016;SDS011;9641;51.494;6.670;2023-09-07T01:24:19;12.65;;;6.43;;
19016;SDS011;9641;51.494;6.670;2023-09-07T01:26:48;8.63;;;5.82;;
19016;SDS011;9641;51.494;6.670;2023-09-07T01:29:15;11.18;;;6.68;;
19016;SDS011;9641;51.494;6.670;2023-09-07T01:31:43;12.13;;;6.43;;
19016;SDS011;9641;51.494;6.670;2023-09-07T01:34:09;10.50;;;5.90;;
19016;SDS011;9641;51.494;6.670;2023-09-07T01:36:36;10.40;;;5.97;;
19016;SDS011;9641;51.494;6.670;2023-09-07T01:39:05;11.00;;;6.53;;
19016;SDS011;9641;51.494;6.670;2023-09-07T01:41:33;10.85;;;5.80;;
19016;SDS011;9641;51.494;6.670;2023-09-07T01:44:00;11.10;;;5.88;;
19016;SDS011;9641;51.494;6.670;2023-09-07T01:46:27;9.18;;;5.65;;
19016;SDS011;9641;51.494;6.670;2023-09-07T01:48:54;9.43;;;5.63;;
19016;SDS011;9641;51.494;6.670;2023-09-07T01:51:20;7.30;;;5.47;;
19016;SDS011;9641;51.494;6.670;2023-09-07T01:53:47;6.28;;;5.07;;
19016;SDS011;9641;51.494;6.670;2023-09-07T01:56:16;9.20;;;5.63;;
19016;SDS011;9641;51.494;6.670;2023-09-07T01:58:43;9.77;;;5.85;;
19016;SDS011;9641;51.494;6.670;2023-09-07T02:01:20;7.13;;;5.70;;
19016;SDS011;9641;51.494;6.670;2023-09-07T02:03:48;7.50;;;5.20;;
19016;SDS011;9641;51.494;6.670;2023-09-07T02:06:14;9.50;;;5.15;;
19016;SDS011;9641;51.494;6.670;2023-09-07T02:08:42;6.60;;;5.20;;
19016;SDS011;9641;51.494;6.670;2023-09-07T02:11:09;8.93;;;5.45;;
19016;SDS011;9641;51.494;6.670;2023-09-07T02:13:38;8.55;;;5.00;;
19016;SDS011;9641;51.494;6.670;2023-09-07T02:16:07;6.50;;;5.50;;
19016;SDS011;9641;51.494;6.670;2023-09-07T02:18:35;8.15;;;5.05;;
19016;SDS011;9641;51.494;6.670;2023-09-07T02:21:02;10.70;;;6.22;;
19016;SDS011;9641;51.494;6.670;2023-09-07T02:23:30;9.57;;;5.80;;
19016;SDS011;9641;51.494;6.670;2023-09-07T02:25:57;8.48;;;5.15;;
19016;SDS011;9641;51.494;6.670;2023-09-07T02:28:25;6.22;;;5.35;;
19016;SDS011;9641;51.494;6.670;2023-09-07T02:30:54;7.32;;;5.30;;
19016;SDS011;9641;51.494;6.670;2023-09-07T02:33:21;7.55;;;5.22;;
19016;SDS011;9641;51.494;6.670;2023-09-07T02:35:48;10.52;;;5.95;;
19016;SDS011;9641;51.494;6.670;2023-09-07T02:38:16;9.25;;;6.05;;
19016;SDS011;9641;51.494;6.670;2023-09-07T02:40:43;11.27;;;5.85;;
19016;SDS011;9641;51.494;6.670;2023-09-07T02:43:12;6.38;;;5.50;;
19016;SDS011;9641;51.494;6.670;2023-09-07T02:45:38;9.52;;;6.40;;
19016;SDS011;9641;51.494;6.670;2023-09-07T02:48:07;10.65;;;6.55;;
19016;SDS011;9641;51.494;6.670;2023-09-07T02:50:36;10.50;;;7.00;;
19016;SDS011;9641;51.494;6.670;2023-09-07T02:53:03;14.50;;;7.05;;
19016;SDS011;9641;51.494;6.670;2023-09-07T02:55:30;11.70;;;6.80;;
19016;SDS011;9641;51.494;6.670;2023-09-07T02:57:57;12.77;;;7.20;;
19016;SDS011;9641;51.494;6.670;2023-09-07T03:00:25;13.63;;;7.65;;
19016;SDS011;9641;51.494;6.670;2023-09-07T03:02:52;13.70;;;7.10;;
19016;SDS011;9641;51.494;6.670;2023-09-07T03:05:20;14.23;;;7.03;;
19016;SDS011;9641;51.494;6.670;2023-09-07T03:07:47;11.02;;;6.90;;
19016;SDS011;9641;51.494;6.670;2023-09-07T03:10:17;10.57;;;7.32;;
19016;SDS011;9641;51.494;6.670;2023-09-07T03:12:45;8.37;;;6.80;;
19016;SDS011;9641;51.494;6.670;2023-09-07T03:15:12;11.53;;;6.83;;
19016;SDS011;9641;51.494;6.670;2023-09-07T03:17:40;9.00;;;6.47;;
19016;SDS011;9641;51.494;6.670;2023-09-07T03:20:08;9.52;;;6.80;;
19016;SDS011;9641;51.494;6.670;2023-09-07T03:22:42;10.07;;;6.88;;
19016;SDS011;9641;51.494;6.670;2023-09-07T03:25:09;10.52;;;6.35;;
19016;SDS011;9641;51.494;6.670;2023-09-07T03:27:37;11.18;;;6.88;;
19016;SDS011;9641;51.494;6.670;2023-09-07T03:30:06;11.20;;;6.70;;
19016;SDS011;9641;51.494;6.670;2023-09-07T03:32:34;8.63;;;6.47;;
19016;SDS011;9641;51.494;6.670;2023-09-07T03:35:03;9.40;;;6.47;;
19016;SDS011;9641;51.494;6.670;2023-09-07T03:37:32;10.00;;;6.60;;
19016;SDS011;9641;51.494;6.670;2023-09-07T03:40:00;11.37;;;6.50;;
19016;SDS011;9641;51.494;6.670;2023-09-07T03:42:31;11.03;;;6.70;;
19016;SDS011;9641;51.494;6.670;2023-09-07T03:44:58;9.07;;;6.83;;
19016;SDS011;9641;51.494;6.670;2023-09-07T03:47:26;13.60;;;7.10;;
19016;SDS011;9641;51.494;6.670;2023-09-07T03:49:55;11.13;;;6.33;;
19016;SDS011;9641;51.494;6.670;2023-09-07T03:52:22;8.30;;;5.83;;
19016;SDS011;9641;51.494;6.670;2023-09-07T03:54:51;15.53;;;6.80;;
19016;SDS011;9641;51.494;6.670;2023-09-07T03:57:21;10.70;;;6.70;;
19016;SDS011;9641;51.494;6.670;2023-09-07T03:59:49;16.33;;;6.33;;
19016;SDS011;9641;51.494;6.670;2023-09-07T04:02:16;9.43;;;6.27;;
19016;SDS011;9641;51.494;6.670;2023-09-07T04:04:43;11.73;;;7.10;;
19016;SDS011;9641;51.494;6.670;2023-09-07T04:07:13;9.63;;;6.07;;
19016;SDS011;9641;51.494;6.670;2023-09-07T04:09:41;8.97;;;6.30;;
19016;SDS011;9641;51.494;6.670;2023-09-07T04:12:08;10.10;;;6.40;;
19016;SDS011;9641;51.494;6.670;2023-09-07T04:14:37;7.37;;;6.23;;
19016;SDS011;9641;51.494;6.670;2023-09-07T04:17:06;8.40;;;5.40;;
19016;SDS011;9641;51.494;6.670;2023-09-07T04:19:33;14.20;;;6.83;;
19016;SDS011;9641;51.494;6.670;2023-09-07T04:21:59;9.67;;;6.57;;
19016;SDS011;9641;51.494;6.670;2023-09-07T04:24:28;10.47;;;6.97;;
19016;SDS011;9641;51.494;6.670;2023-09-07T04:26:58;12.70;;;7.43;;
19016;SDS011;9641;51.494;6.670;2023-09-07T04:29:25;11.20;;;5.90;;
19016;SDS011;9641;51.494;6.670;2023-09-07T04:31:54;7.97;;;6.33;;
19016;SDS011;9641;51.494;6.670;2023-09-07T04:34:21;11.47;;;6.27;;
19016;SDS011;9641;51.494;6.670;2023-09-07T04:36:48;11.57;;;6.53;;
19016;SDS011;9641;51.494;6.670;2023-09-07T04:39:15;10.07;;;6.27;;
19016;SDS011;9641;51.494;6.670;2023-09-07T04:41:43;7.90;;;6.53;;
19016;SDS011;9641;51.494;6.670;2023-09-07T04:44:10;9.50;;;7.07;;
19016;SDS011;9641;51.494;6.670;2023-09-07T04:46:37;15.67;;;8.33;;
19016;SDS011;9641;51.494;6.670;2023-09-07T04:49:06;13.70;;;6.53;;
19016;SDS011;9641;51.494;6.670;2023-09-07T04:51:33;10.17;;;6.73;;
19016;SDS011;9641;51.494;6.670;2023-09-07T04:54:00;10.03;;;6.03;;
19016;SDS011;9641;51.494;6.670;2023-09-07T04:56:27;10.00;;;6.53;;
19016;SDS011;9641;51.494;6.670;2023-09-07T04:58:55;12.57;;;6.97;;
19016;SDS011;9641;51.494;6.670;2023-09-07T05:01:21;12.13;;;6.80;;
19016;SDS011;9641;51.494;6.670;2023-09-07T05:03:50;10.50;;;6.87;;
19016;SDS011;9641;51.494;6.670;2023-09-07T05:06:19;9.47;;;6.37;;
19016;SDS011;9641;51.494;6.670;2023-09-07T05:08:48;11.97;;;6.60;;
19016;SDS011;9641;51.494;6.670;2023-09-07T05:11:14;13.77;;;6.77;;
19016;SDS011;9641;51.494;6.670;2023-09-07T05:13:41;11.47;;;6.97;;
19016;SDS011;9641;51.494;6.670;2023-09-07T05:16:08;11.63;;;7.13;;
19016;SDS011;9641;51.494;6.670;2023-09-07T05:18:36;9.63;;;6.43;;
19016;SDS011;9641;51.494;6.670;2023-09-07T05:21:10;10.63;;;7.47;;
19016;SDS011;9641;51.494;6.670;2023-09-07T05:23:39;11.00;;;6.80;;
19016;SDS011;9641;51.494;6.670;2023-09-07T05:26:07;14.70;;;7.17;;
19016;SDS011;9641;51.494;6.670;2023-09-07T05:28:34;12.70;;;7.50;;
19016;SDS011;9641;51.494;6.670;2023-09-07T05:31:02;14.27;;;7.07;;
19016;SDS011;9641;51.494;6.670;2023-09-07T05:33:30;10.70;;;7.40;;
19016;SDS011;9641;51.494;6.670;2023-09-07T05:35:57;12.53;;;6.90;;
19016;SDS011;9641;51.494;6.670;2023-09-07T05:38:24;9.60;;;6.70;;
19016;SDS011;9641;51.494;6.670;2023-09-07T05:40:52;13.00;;;6.67;;
19016;SDS011;9641;51.494;6.670;2023-09-07T05:43:22;15.33;;;7.30;;
19016;SDS011;9641;51.494;6.670;2023-09-07T05:45:49;9.50;;;7.40;;
19016;SDS011;9641;51.494;6.670;2023-09-07T05:48:15;12.07;;;6.90;;
19016;SDS011;9641;51.494;6.670;2023-09-07T05:50:43;13.57;;;7.07;;
19016;SDS011;9641;51.494;6.670;2023-09-07T05:53:10;13.53;;;7.00;;
19016;SDS011;9641;51.494;6.670;2023-09-07T05:55:37;10.60;;;6.07;;
19016;SDS011;9641;51.494;6.670;2023-09-07T05:58:07;9.30;;;6.87;;
19016;SDS011;9641;51.494;6.670;2023-09-07T06:00:38;10.23;;;6.40;;
19016;SDS011;9641;51.494;6.670;2023-09-07T06:03:06;14.03;;;6.70;;
19016;SDS011;9641;51.494;6.670;2023-09-07T06:05:33;10.00;;;6.63;;
19016;SDS011;9641;51.494;6.670;2023-09-07T06:08:01;12.63;;;7.77;;
19016;SDS011;9641;51.494;6.670;2023-09-07T06:10:29;12.43;;;7.07;;
19016;SDS011;9641;51.494;6.670;2023-09-07T06:12:57;12.30;;;7.40;;
19016;SDS011;9641;51.494;6.670;2023-09-07T06:15:26;12.83;;;7.50;;
19016;SDS011;9641;51.494;6.670;2023-09-07T06:17:53;10.90;;;7.07;;
19016;SDS011;9641;51.494;6.670;2023-09-07T06:20:21;14.00;;;6.47;;
19016;SDS011;9641;51.494;6.670;2023-09-07T06:22:48;8.87;;;6.27;;
19016;SDS011;9641;51.494;6.670;2023-09-07T06:25:15;10.67;;;6.33;;
19016;SDS011;9641;51.494;6.670;2023-09-07T06:27:43;7.30;;;5.60;;
19016;SDS011;9641;51.494;6.670;2023-09-07T06:30:10;9.37;;;5.87;;
19016;SDS011;9641;51.494;6.670;2023-09-07T06:32:40;11.57;;;7.17;;
19016;SDS011;9641;51.494;6.670;2023-09-07T06:35:09;12.13;;;6.70;;
19016;SDS011;9641;51.494;6.670;2023-09-07T06:37:36;9.70;;;6.70;;
19016;SDS011;9641;51.494;6.670;2023-09-07T06:40:07;10.43;;;6.30;;
19016;SDS011;9641;51.494;6.670;2023-09-07T06:42:35;7.60;;;5.83;;
19016;SDS011;9641;51.494;6.670;2023-09-07T06:45:06;9.85;;;5.90;;
19016;SDS011;9641;51.494;6.670;2023-09-07T06:47:34;9.05;;;6.13;;
19016;SDS011;9641;51.494;6.670;2023-09-07T06:50:04;9.13;;;6.32;;
19016;SDS011;9641;51.494;6.670;2023-09-07T06:52:31;12.23;;;6.22;;
19016;SDS011;9641;51.494;6.670;2023-09-07T06:54:58;7.53;;;5.88;;
19016;SDS011;9641;51.494;6.670;2023-09-07T06:57:25;9.88;;;5.97;;
19016;SDS011;9641;51.494;6.670;2023-09-07T06:59:53;9.10;;;6.20;;
19016;SDS011;9641;51.494;6.670;2023-09-07T07:02:20;8.35;;;6.35;;
19016;SDS011;9641;51.494;6.670;2023-09-07T07:04:47;12.82;;;6.38;;
19016;SDS011;9641;51.494;6.670;2023-09-07T07:07:16;9.63;;;6.35;;
19016;SDS011;9641;51.494;6.670;2023-09-07T07:09:44;14.35;;;6.60;;
19016;SDS011;9641;51.494;6.670;2023-09-07T07:12:11;10.55;;;6.97;;
19016;SDS011;9641;51.494;6.670;2023-09-07T07:14:38;12.27;;;6.45;;
19016;SDS011;9641;51.494;6.670;2023-09-07T07:17:05;8.70;;;6.50;;
19016;SDS011;9641;51.494;6.670;2023-09-07T07:19:33;11.35;;;7.07;;
19016;SDS011;9641;51.494;6.670;2023-09-07T07:22:02;13.43;;;7.75;;
19016;SDS011;9641;51.494;6.670;2023-09-07T07:24:32;13.80;;;7.43;;
19016;SDS011;9641;51.494;6.670;2023-09-07T07:26:59;12.07;;;6.60;;
19016;SDS011;9641;51.494;6.670;2023-09-07T07:29:29;11.40;;;7.10;;
19016;SDS011;9641;51.494;6.670;2023-09-07T07:31:56;15.02;;;6.72;;
19016;SDS011;9641;51.494;6.670;2023-09-07T07:34:23;11.90;;;7.00;;
19016;SDS011;9641;51.494;6.670;2023-09-07T07:36:50;10.65;;;5.78;;
19016;SDS011;9641;51.494;6.670;2023-09-07T07:39:17;11.68;;;5.70;;
19016;SDS011;9641;51.494;6.670;2023-09-07T07:41:45;14.93;;;6.70;;
19016;SDS011;9641;51.494;6.670;2023-09-07T07:44:12;11.65;;;6.10;;
19016;SDS011;9641;51.494;6.670;2023-09-07T07:46:39;13.00;;;6.40;;
19016;SDS011;9641;51.494;6.670;2023-09-07T07:49:06;14.95;;;6.18;;
19016;SDS011;9641;51.494;6.670;2023-09-07T07:51:34;13.38;;;6.18;;
19016;SDS011;9641;51.494;6.670;2023-09-07T07:54:01;14.35;;;6.53;;
19016;SDS011;9641;51.494;6.670;2023-09-07T07:56:28;10.05;;;5.30;;
19016;SDS011;9641;51.494;6.670;2023-09-07T07:58:57;8.80;;;5.25;;
19016;SDS011;9641;51.494;6.670;2023-09-07T08:01:24;13.95;;;5.45;;
19016;SDS011;9641;51.494;6.670;2023-09-07T08:03:52;6.55;;;4.78;;
19016;SDS011;9641;51.494;6.670;2023-09-07T08:06:20;10.18;;;4.80;;
19016;SDS011;9641;51.494;6.670;2023-09-07T08:08:48;7.35;;;4.75;;
19016;SDS011;9641;51.494;6.670;2023-09-07T08:11:15;9.25;;;4.72;;
19016;SDS011;9641;51.494;6.670;2023-09-07T08:13:46;6.43;;;4.32;;
19016;SDS011;9641;51.494;6.670;2023-09-07T08:16:15;7.15;;;4.30;;
19016;SDS011;9641;51.494;6.670;2023-09-07T08:18:42;6.18;;;4.15;;
19016;SDS011;9641;51.494;6.670;2023-09-07T08:21:11;7.55;;;5.00;;
19016;SDS011;9641;51.494;6.670;2023-09-07T08:23:40;6.65;;;4.25;;
19016;SDS011;9641;51.494;6.670;2023-09-07T08:26:08;10.98;;;4.22;;
19016;SDS011;9641;51.494;6.670;2023-09-07T08:28:37;5.78;;;4.20;;
19016;SDS011;9641;51.494;6.670;2023-09-07T08:31:03;9.30;;;3.97;;
19016;SDS011;9641;51.494;6.670;2023-09-07T08:33:32;8.40;;;4.28;;
19016;SDS011;9641;51.494;6.670;2023-09-07T08:36:05;6.07;;;4.47;;
19016;SDS011;9641;51.494;6.670;2023-09-07T08:38:33;5.85;;;4.15;;
19016;SDS011;9641;51.494;6.670;2023-09-07T08:41:01;9.10;;;5.35;;
19016;SDS011;9641;51.494;6.670;2023-09-07T08:43:30;5.03;;;4.15;;
19016;SDS011;9641;51.494;6.670;2023-09-07T08:46:03;4.60;;;4.20;;
19016;SDS011;9641;51.494;6.670;2023-09-07T08:48:38;6.60;;;4.20;;
19016;SDS011;9641;51.494;6.670;2023-09-07T08:51:06;8.35;;;4.57;;
19016;SDS011;9641;51.494;6.670;2023-09-07T08:53:33;9.48;;;3.97;;
19016;SDS011;9641;51.494;6.670;2023-09-07T08:56:01;6.05;;;4.32;;
19016;SDS011;9641;51.494;6.670;2023-09-07T08:58:29;7.10;;;3.70;;
19016;SDS011;9641;51.494;6.670;2023-09-07T09:00:57;7.20;;;4.68;;
19016;SDS011;9641;51.494;6.670;2023-09-07T09:03:24;6.35;;;4.28;;
19016;SDS011;9641;51.494;6.670;2023-09-07T09:05:54;5.45;;;3.90;;
19016;SDS011;9641;51.494;6.670;2023-09-07T09:08:22;6.32;;;4.28;;
19016;SDS011;9641;51.494;6.670;2023-09-07T09:10:58;5.22;;;3.95;;
19016;SDS011;9641;51.494;6.670;2023-09-07T09:13:29;3.88;;;3.47;;
19016;SDS011;9641;51.494;6.670;2023-09-07T09:15:58;5.07;;;3.85;;
19016;SDS011;9641;51.494;6.670;2023-09-07T09:18:26;8.43;;;4.47;;
19016;SDS011;9641;51.494;6.670;2023-09-07T09:20:54;4.13;;;3.70;;
19016;SDS011;9641;51.494;6.670;2023-09-07T09:23:24;4.95;;;3.67;;
19016;SDS011;9641;51.494;6.670;2023-09-07T09:25:51;5.97;;;3.67;;
19016;SDS011;9641;51.494;6.670;2023-09-07T09:28:18;5.35;;;4.05;;
19016;SDS011;9641;51.494;6.670;2023-09-07T09:30:46;6.00;;;4.10;;
19016;SDS011;9641;51.494;6.670;2023-09-07T09:33:14;4.28;;;3.85;;
19016;SDS011;9641;51.494;6.670;2023-09-07T09:35:42;5.00;;;3.53;;
19016;SDS011;9641;51.494;6.670;2023-09-07T09:38:12;6.90;;;4.10;;
19016;SDS011;9641;51.494;6.670;2023-09-07T09:40:39;4.43;;;4.03;;
19016;SDS011;9641;51.494;6.670;2023-09-07T09:43:06;5.18;;;3.78;;
19016;SDS011;9641;51.494;6.670;2023-09-07T09:45:34;6.90;;;3.53;;
19016;SDS011;9641;51.494;6.670;2023-09-07T09:48:01;4.72;;;3.75;;
19016;SDS011;9641;51.494;6.670;2023-09-07T09:50:31;7.18;;;4.00;;
19016;SDS011;9641;51.494;6.670;2023-09-07T09:52:59;4.40;;;3.53;;
19016;SDS011;9641;51.494;6.670;2023-09-07T09:55:30;5.47;;;3.78;;
19016;SDS011;9641;51.494;6.670;2023-09-07T09:57:58;5.93;;;3.92;;
19016;SDS011;9641;51.494;6.670;2023-09-07T10:00:25;5.05;;;3.80;;
19016;SDS011;9641;51.494;6.670;2023-09-07T10:03:04;5.85;;;3.95;;
19016;SDS011;9641;51.494;6.670;2023-09-07T10:05:36;3.88;;;3.35;;
19016;SDS011;9641;51.494;6.670;2023-09-07T10:08:04;6.32;;;3.10;;
19016;SDS011;9641;51.494;6.670;2023-09-07T10:10:36;5.22;;;3.50;;
19016;SDS011;9641;51.494;6.670;2023-09-07T10:13:04;5.07;;;3.50;;
19016;SDS011;9641;51.494;6.670;2023-09-07T10:15:32;4.07;;;3.58;;
19016;SDS011;9641;51.494;6.670;2023-09-07T10:18:05;5.80;;;4.20;;
19016;SDS011;9641;51.494;6.670;2023-09-07T10:20:49;5.90;;;4.00;;
19016;SDS011;9641;51.494;6.670;2023-09-07T10:23:17;6.68;;;3.67;;
19016;SDS011;9641;51.494;6.670;2023-09-07T10:25:48;4.20;;;3.63;;
19016;SDS011;9641;51.494;6.670;2023-09-07T10:28:19;4.63;;;3.90;;
19016;SDS011;9641;51.494;6.670;2023-09-07T10:30:57;4.82;;;3.90;;
19016;SDS011;9641;51.494;6.670;2023-09-07T10:33:24;5.25;;;3.92;;
19016;SDS011;9641;51.494;6.670;2023-09-07T10:35:51;4.40;;;3.58;;
19016;SDS011;9641;51.494;6.670;2023-09-07T10:38:18;3.80;;;3.42;;
19016;SDS011;9641;51.494;6.670;2023-09-07T10:40:45;3.67;;;3.38;;
19016;SDS011;9641;51.494;6.670;2023-09-07T10:43:14;18.30;;;7.82;;
19016;SDS011;9641;51.494;6.670;2023-09-07T10:45:43;8.00;;;4.72;;
19016;SDS011;9641;51.494;6.670;2023-09-07T10:48:11;11.57;;;6.55;;
19016;SDS011;9641;51.494;6.670;2023-09-07T10:50:42;6.32;;;4.35;;
19016;SDS011;9641;51.494;6.670;2023-09-07T10:53:11;7.90;;;4.40;;
19016;SDS011;9641;51.494;6.670;2023-09-07T10:55:38;4.88;;;3.92;;
19016;SDS011;9641;51.494;6.670;2023-09-07T10:58:06;4.75;;;3.72;;
19016;SDS011;9641;51.494;6.670;2023-09-07T11:00:35;4.05;;;3.40;;
19016;SDS011;9641;51.494;6.670;2023-09-07T11:03:09;3.30;;;3.00;;
19016;SDS011;9641;51.494;6.670;2023-09-07T11:05:36;4.03;;;3.63;;
19016;SDS011;9641;51.494;6.670;2023-09-07T11:08:04;3.75;;;3.45;;
19016;SDS011;9641;51.494;6.670;2023-09-07T11:10:33;7.10;;;4.10;;
19016;SDS011;9641;51.494;6.670;2023-09-07T11:13:03;9.15;;;3.70;;
19016;SDS011;9641;51.494;6.670;2023-09-07T11:15:31;4.90;;;3.80;;
19016;SDS011;9641;51.494;6.670;2023-09-07T11:18:03;4.72;;;3.33;;
19016;SDS011;9641;51.494;6.670;2023-09-07T11:20:31;4.70;;;3.53;;
19016;SDS011;9641;51.494;6.670;2023-09-07T11:22:58;4.47;;;3.35;;
19016;SDS011;9641;51.494;6.670;2023-09-07T11:25:25;4.07;;;3.00;;
19016;SDS011;9641;51.494;6.670;2023-09-07T11:27:52;4.63;;;3.20;;
19016;SDS011;9641;51.494;6.670;2023-09-07T11:30:20;3.70;;;2.88;;
19016;SDS011;9641;51.494;6.670;2023-09-07T11:32:49;3.95;;;3.20;;
19016;SDS011;9641;51.494;6.670;2023-09-07T11:35:17;3.45;;;3.10;;
19016;SDS011;9641;51.494;6.670;2023-09-07T11:37:44;5.10;;;3.20;;
19016;SDS011;9641;51.494;6.670;2023-09-07T11:40:18;3.20;;;2.75;;
19016;SDS011;9641;51.494;6.670;2023-09-07T11:42:45;3.13;;;2.83;;
19016;SDS011;9641;51.494;6.670;2023-09-07T11:45:12;3.67;;;3.38;;
19016;SDS011;9641;51.494;6.670;2023-09-07T11:47:40;3.72;;;3.10;;
19016;SDS011;9641;51.494;6.670;2023-09-07T11:50:07;6.32;;;3.40;;
19016;SDS011;9641;51.494;6.670;2023-09-07T11:52:35;4.00;;;3.30;;
19016;SDS011;9641;51.494;6.670;2023-09-07T11:55:03;4.10;;;3.22;;
19016;SDS011;9641;51.494;6.670;2023-09-07T11:57:30;4.65;;;2.72;;
19016;SDS011;9641;51.494;6.670;2023-09-07T11:59:57;4.03;;;3.58;;
19016;SDS011;9641;51.494;6.670;2023-09-07T12:02:24;5.00;;;3.20;;
19016;SDS011;9641;51.494;6.670;2023-09-07T12:04:51;4.35;;;3.67;;
19016;SDS011;9641;51.494;6.670;2023-09-07T12:07:19;5.82;;;2.92;;
19016;SDS011;9641;51.494;6.670;2023-09-07T12:09:47;3.28;;;2.92;;
19016;SDS011;9641;51.494;6.670;2023-09-07T12:12:14;7.68;;;3.40;;
19016;SDS011;9641;51.494;6.670;2023-09-07T12:14:41;7.25;;;2.85;;
19016;SDS011;9641;51.494;6.670;2023-09-07T12:17:08;3.33;;;2.85;;
19016;SDS011;9641;51.494;6.670;2023-09-07T12:19:35;6.00;;;3.20;;
19016;SDS011;9641;51.494;6.670;2023-09-07T12:22:01;3.63;;;3.17;;
19016;SDS011;9641;51.494;6.670;2023-09-07T12:24:29;3.97;;;3.08;;
19016;SDS011;9641;51.494;6.670;2023-09-07T12:26:57;3.30;;;2.88;;
19016;SDS011;9641;51.494;6.670;2023-09-07T12:29:24;4.90;;;3.30;;
19016;SDS011;9641;51.494;6.670;2023-09-07T12:31:51;3.22;;;2.92;;
19016;SDS011;9641;51.494;6.670;2023-09-07T12:34:18;5.75;;;3.60;;
19016;SDS011;9641;51.494;6.670;2023-09-07T12:36:45;4.68;;;2.60;;
19016;SDS011;9641;51.494;6.670;2023-09-07T12:39:13;4.78;;;3.45;;
19016;SDS011;9641;51.494;6.670;2023-09-07T12:41:41;4.32;;;3.50;;
19016;SDS011;9641;51.494;6.670;2023-09-07T12:44:09;5.13;;;3.55;;
19016;SDS011;9641;51.494;6.670;2023-09-07T12:46:36;6.10;;;3.53;;
19016;SDS011;9641;51.494;6.670;2023-09-07T12:49:03;3.50;;;2.85;;
19016;SDS011;9641;51.494;6.670;2023-09-07T12:51:31;3.75;;;3.28;;
19016;SDS011;9641;51.494;6.670;2023-09-07T12:53:58;3.45;;;3.08;;
19016;SDS011;9641;51.494;6.670;2023-09-07T12:56:24;3.13;;;2.90;;
19016;SDS011;9641;51.494;6.670;2023-09-07T12:58:51;3.05;;;2.75;;
19016;SDS011;9641;51.494;6.670;2023-09-07T13:01:19;4.45;;;2.88;;
19016;SDS011;9641;51.494;6.670;2023-09-07T13:03:46;6.55;;;3.72;;
19016;SDS011;9641;51.494;6.670;2023-09-07T13:06:13;3.20;;;3.00;;
19016;SDS011;9641;51.494;6.670;2023-09-07T13:08:42;3.30;;;3.00;;
19016;SDS011;9641;51.494;6.670;2023-09-07T13:11:09;4.13;;;3.03;;
19016;SDS011;9641;51.494;6.670;2023-09-07T13:13:36;3.60;;;3.05;;
19016;SDS011;9641;51.494;6.670;2023-09-07T13:16:03;3.00;;;2.70;;
19016;SDS011;9641;51.494;6.670;2023-09-07T13:18:32;4.47;;;3.10;;
19016;SDS011;9641;51.494;6.670;2023-09-07T13:20:58;3.45;;;3.05;;
19016;SDS011;9641;51.494;6.670;2023-09-07T13:23:26;5.07;;;3.10;;
19016;SDS011;9641;51.494;6.670;2023-09-07T13:25:53;9.90;;;2.88;;
19016;SDS011;9641;51.494;6.670;2023-09-07T13:28:20;3.53;;;2.95;;
19016;SDS011;9641;51.494;6.670;2023-09-07T13:30:48;3.05;;;2.50;;
19016;SDS011;9641;51.494;6.670;2023-09-07T13:33:15;5.05;;;3.28;;
19016;SDS011;9641;51.494;6.670;2023-09-07T13:35:44;4.85;;;3.13;;
19016;SDS011;9641;51.494;6.670;2023-09-07T13:38:10;3.30;;;3.00;;
19016;SDS011;9641;51.494;6.670;2023-09-07T13:40:37;3.38;;;2.97;;
19016;SDS011;9641;51.494;6.670;2023-09-07T13:43:04;3.17;;;2.90;;
19016;SDS011;9641;51.494;6.670;2023-09-07T13:45:33;3.53;;;3.13;;
19016;SDS011;9641;51.494;6.670;2023-09-07T13:48:00;4.70;;;3.17;;
19016;SDS011;9641;51.494;6.670;2023-09-07T13:50:27;4.47;;;2.88;;
19016;SDS011;9641;51.494;6.670;2023-09-07T13:52:56;6.75;;;3.35;;
19016;SDS011;9641;51.494;6.670;2023-09-07T13:55:23;5.32;;;3.10;;
19016;SDS011;9641;51.494;6.670;2023-09-07T13:57:54;4.28;;;3.05;;
19016;SDS011;9641;51.494;6.670;2023-09-07T14:00:21;3.10;;;2.80;;
19016;SDS011;9641;51.494;6.670;2023-09-07T14:02:49;5.80;;;2.70;;
19016;SDS011;9641;51.494;6.670;2023-09-07T14:05:16;4.32;;;2.70;;
19016;SDS011;9641;51.494;6.670;2023-09-07T14:07:47;3.47;;;3.17;;
19016;SDS011;9641;51.494;6.670;2023-09-07T14:10:19;3.60;;;3.28;;
19016;SDS011;9641;51.494;6.670;2023-09-07T14:12:47;5.45;;;3.15;;
19016;SDS011;9641;51.494;6.670;2023-09-07T14:15:21;4.72;;;3.42;;
19016;SDS011;9641;51.494;6.670;2023-09-07T14:17:58;6.47;;;3.50;;
19016;SDS011;9641;51.494;6.670;2023-09-07T14:20:35;4.53;;;3.47;;
19016;SDS011;9641;51.494;6.670;2023-09-07T14:23:14;5.05;;;3.33;;
19016;SDS011;9641;51.494;6.670;2023-09-07T14:25:43;3.80;;;3.40;;
19016;SDS011;9641;51.494;6.670;2023-09-07T14:28:11;5.38;;;3.70;;
19016;SDS011;9641;51.494;6.670;2023-09-07T14:30:39;6.47;;;3.40;;
19016;SDS011;9641;51.494;6.670;2023-09-07T14:33:06;7.53;;;3.60;;
19016;SDS011;9641;51.494;6.670;2023-09-07T14:35:33;4.50;;;3.47;;
19016;SDS011;9641;51.494;6.670;2023-09-07T14:38:00;3.90;;;3.20;;
19016;SDS011;9641;51.494;6.670;2023-09-07T14:40:27;5.00;;;3.38;;
19016;SDS011;9641;51.494;6.670;2023-09-07T14:42:56;5.07;;;3.20;;
19016;SDS011;9641;51.494;6.670;2023-09-07T14:45:24;3.17;;;2.88;;
19016;SDS011;9641;51.494;6.670;2023-09-07T14:47:54;6.22;;;3.15;;
19016;SDS011;9641;51.494;6.670;2023-09-07T14:50:21;3.30;;;3.00;;
19016;SDS011;9641;51.494;6.670;2023-09-07T14:52:48;3.47;;;2.85;;
19016;SDS011;9641;51.494;6.670;2023-09-07T14:55:16;3.42;;;3.13;;
19016;SDS011;9641;51.494;6.670;2023-09-07T14:57:44;3.67;;;3.22;;
19016;SDS011;9641;51.494;6.670;2023-09-07T15:00:18;11.98;;;3.38;;
19016;SDS011;9641;51.494;6.670;2023-09-07T15:02:45;3.90;;;3.20;;